Time;durP1;ratioP1;P1;durP2;ratioP2;P2;SDS_P1;SDS_P2;PMS_P1;PMS_P2;Temp;Humidity;BMP_temperature;BMP_pressure;BME280_temperature;BME280_humidity;BME280_pressure;Samples;Min_cycle;Max_cycle;Signal;HPM_P1;HPM_P2
2022/12/09 00:01:38;;;;;;;11.47;9.53;;;;;;;-145.23;100.00;58621.06;5005396;28;20260;-54
2022/12/09 00:04:05;;;;;;;9.87;8.30;;;;;;;-145.23;100.00;58621.06;5007454;28;20738;-53
2022/12/09 00:06:32;;;;;;;14.37;9.57;;;;;;;-145.23;100.00;58621.06;5008476;28;20275;-53
2022/12/09 00:08:58;;;;;;;12.80;9.37;;;;;;;-145.23;100.00;58621.06;5006782;28;20221;-54
2022/12/09 00:11:26;;;;;;;13.10;10.20;;;;;;;-145.23;100.00;58621.06;5006434;28;20246;-54
2022/12/09 00:13:55;;;;;;;13.13;11.50;;;;;;;-145.23;100.00;58621.06;5002509;28;20288;-53
2022/12/09 00:16:22;;;;;;;12.67;10.37;;;;;;;-145.23;100.00;58621.06;5008895;28;20258;-53
2022/12/09 00:18:49;;;;;;;12.47;10.57;;;;;;;-145.23;100.00;58621.06;5010249;28;20361;-54
2022/12/09 00:21:19;;;;;;;12.27;10.23;;;;;;;-145.23;100.00;58621.06;5008974;28;20271;-52
2022/12/09 00:23:46;;;;;;;14.20;10.03;;;;;;;-145.23;100.00;58621.06;5030465;28;20335;-53
2022/12/09 00:26:13;;;;;;;13.47;10.10;;;;;;;-145.23;100.00;58621.06;5026556;28;20234;-53
2022/12/09 00:28:41;;;;;;;12.13;9.70;;;;;;;-145.23;100.00;58621.06;5033464;28;20246;-53
2022/12/09 00:31:08;;;;;;;14.60;11.07;;;;;;;-145.23;100.00;58621.06;5021242;28;20232;-53
2022/12/09 00:33:35;;;;;;;19.30;14.47;;;;;;;-145.23;100.00;58621.06;5026824;28;20273;-53
2022/12/09 00:36:05;;;;;;;14.27;11.13;;;;;;;-145.23;100.00;58621.06;5020010;28;20631;-53
2022/12/09 00:38:32;;;;;;;14.30;10.67;;;;;;;-145.23;100.00;58621.06;5012649;28;20232;-53
2022/12/09 00:40:59;;;;;;;15.87;12.33;;;;;;;-145.23;100.00;58621.06;5017120;28;20257;-53
2022/12/09 00:43:25;;;;;;;14.30;11.33;;;;;;;-145.23;100.00;58621.06;5012332;28;20244;-53
2022/12/09 00:45:53;;;;;;;15.10;11.60;;;;;;;-145.23;100.00;58621.06;5004415;28;20269;-53
2022/12/09 00:48:20;;;;;;;15.37;12.00;;;;;;;-145.23;100.00;58621.06;5005554;28;20316;-53
2022/12/09 00:50:47;;;;;;;14.93;11.07;;;;;;;-145.23;100.00;58621.06;5005224;28;20260;-53
2022/12/09 00:53:13;;;;;;;14.67;11.50;;;;;;;-145.23;100.00;58621.06;5019195;28;20239;-53
2022/12/09 00:55:40;;;;;;;14.67;11.73;;;;;;;-145.23;100.00;58621.06;5018780;28;20236;-54
2022/12/09 00:58:07;;;;;;;16.50;10.50;;;;;;;-145.23;100.00;58621.06;5024961;28;20454;-53
2022/12/09 01:00:33;;;;;;;16.20;11.87;;;;;;;-145.23;100.00;58621.06;5028614;28;20232;-53
2022/12/09 01:03:01;;;;;;;15.80;12.87;;;;;;;-145.23;100.00;58621.06;5024755;28;20237;-54
2022/12/09 01:05:28;;;;;;;17.00;12.20;;;;;;;-145.23;100.00;58621.06;5028294;28;20743;-53
2022/12/09 01:07:55;;;;;;;16.17;11.67;;;;;;;-145.23;100.00;58621.06;5024807;28;20340;-52
2022/12/09 01:10:22;;;;;;;17.63;11.67;;;;;;;-145.23;100.00;58621.06;5022044;28;20326;-53
2022/12/09 01:12:49;;;;;;;12.93;11.00;;;;;;;-145.23;100.00;58621.06;5018241;28;20234;-53
2022/12/09 01:15:16;;;;;;;17.60;12.33;;;;;;;-145.23;100.00;58621.06;5019221;28;20236;-53
2022/12/09 01:17:43;;;;;;;15.10;11.20;;;;;;;-145.23;100.00;58621.06;5008909;28;20236;-53
2022/12/09 01:20:11;;;;;;;13.43;11.80;;;;;;;-145.23;100.00;58621.06;5011333;28;20666;-53
2022/12/09 01:22:38;;;;;;;19.73;13.43;;;;;;;-145.23;100.00;58621.06;5006423;28;20239;-54
2022/12/09 01:25:06;;;;;;;14.30;11.20;;;;;;;-145.23;100.00;58621.06;5009141;28;20314;-53
2022/12/09 01:27:33;;;;;;;15.60;11.53;;;;;;;-145.23;100.00;58621.06;5000482;28;20593;-53
2022/12/09 01:30:00;;;;;;;16.20;11.27;;;;;;;-145.23;100.00;58621.06;5022177;28;20236;-53
2022/12/09 01:32:27;;;;;;;15.93;11.47;;;;;;;-145.23;100.00;58621.06;5020304;28;20267;-53
2022/12/09 01:34:54;;;;;;;14.63;11.67;;;;;;;-145.23;100.00;58621.06;5027281;28;20376;-54
2022/12/09 01:37:22;;;;;;;14.77;12.10;;;;;;;-145.23;100.00;58621.06;5027761;28;20232;-54
2022/12/09 01:39:50;;;;;;;16.93;12.40;;;;;;;-145.23;100.00;58621.06;5025614;28;20315;-53
2022/12/09 01:42:20;;;;;;;14.37;11.80;;;;;;;-145.23;100.00;58621.06;5029828;28;20606;-53
2022/12/09 01:45:20;;;;;;;19.50;13.40;;;;;;;-145.23;100.00;58621.06;5029063;28;20282;-52
2022/12/09 01:47:47;;;;;;;15.97;12.60;;;;;;;-145.23;100.00;58621.06;5029969;28;20228;-54
2022/12/09 01:50:14;;;;;;;17.30;12.73;;;;;;;-145.23;100.00;58621.06;5038856;28;20235;-52
2022/12/09 01:52:43;;;;;;;16.27;13.13;;;;;;;-145.23;100.00;58621.06;5019476;28;20735;-52
2022/12/09 01:55:10;;;;;;;18.37;12.80;;;;;;;-145.23;100.00;58621.06;5023655;28;20232;-53
2022/12/09 01:57:37;;;;;;;19.40;12.47;;;;;;;-145.23;100.00;58621.06;5018548;28;20259;-53
2022/12/09 02:00:06;;;;;;;19.27;12.47;;;;;;;-145.23;100.00;58621.06;5035527;28;20227;-54
2022/12/09 02:02:34;;;;;;;15.07;12.17;;;;;;;-145.23;100.00;58621.06;5023455;28;20244;-53
2022/12/09 02:05:02;;;;;;;15.90;12.53;;;;;;;-145.23;100.00;58621.06;5022905;28;20739;-53
2022/12/09 02:07:29;;;;;;;16.20;12.13;;;;;;;-145.23;100.00;58621.06;5021248;28;20720;-53
2022/12/09 02:09:58;;;;;;;15.43;11.77;;;;;;;-145.23;100.00;58621.06;5023511;28;20362;-53
2022/12/09 02:12:33;;;;;;;17.00;13.23;;;;;;;-145.23;100.00;58621.06;5022342;28;20239;-53
2022/12/09 02:15:04;;;;;;;15.77;12.00;;;;;;;-145.23;100.00;58621.06;5024245;28;20306;-53
2022/12/09 02:17:34;;;;;;;15.53;11.60;;;;;;;-145.23;100.00;58621.06;4998195;28;20303;-53
2022/12/09 02:20:08;;;;;;;17.63;12.83;;;;;;;-145.23;100.00;58621.06;4994381;28;20244;-52
2022/12/09 02:22:40;;;;;;;16.47;11.33;;;;;;;-145.23;100.00;58621.06;4997197;28;20791;-53
2022/12/09 02:25:18;;;;;;;16.53;12.03;;;;;;;-145.23;100.00;58621.06;5002567;28;20643;-53
2022/12/09 02:27:49;;;;;;;18.57;12.43;;;;;;;-145.23;100.00;58621.06;5008032;28;20233;-53
2022/12/09 02:30:17;;;;;;;16.17;10.90;;;;;;;-145.23;100.00;58621.06;4999757;28;20233;-53
2022/12/09 02:33:13;;;;;;;18.53;12.00;;;;;;;-145.23;100.00;58621.06;5009202;28;20239;-52
2022/12/09 02:35:45;;;;;;;15.83;11.77;;;;;;;-145.23;100.00;58621.06;5011425;28;20233;-53
2022/12/09 02:38:15;;;;;;;14.60;10.90;;;;;;;-145.23;100.00;58621.06;4998253;28;20225;-53
2022/12/09 02:40:46;;;;;;;16.30;11.33;;;;;;;-145.23;100.00;58621.06;5002651;28;20286;-53
2022/12/09 02:43:15;;;;;;;15.20;11.27;;;;;;;-145.23;100.00;58621.06;5005703;28;20896;-53
2022/12/09 02:45:43;;;;;;;16.60;11.73;;;;;;;-145.23;100.00;58621.06;5003316;28;20722;-54
2022/12/09 02:48:11;;;;;;;15.13;11.20;;;;;;;-145.23;100.00;58621.06;5011663;28;20239;-53
2022/12/09 02:50:39;;;;;;;18.13;12.23;;;;;;;-145.23;100.00;58621.06;5007643;28;20810;-54
2022/12/09 02:53:11;;;;;;;11.97;9.93;;;;;;;-145.23;100.00;58621.06;5007709;28;20246;-54
2022/12/09 02:55:39;;;;;;;14.70;10.73;;;;;;;-145.23;100.00;58621.06;5005075;28;20236;-54
2022/12/09 02:58:06;;;;;;;16.13;9.77;;;;;;;-145.23;100.00;58621.06;5001135;28;20247;-54
2022/12/09 03:00:33;;;;;;;14.17;10.77;;;;;;;-145.23;100.00;58621.06;5005881;28;20275;-53
2022/12/09 03:03:03;;;;;;;14.07;10.50;;;;;;;-145.23;100.00;58621.06;4997177;28;20291;-52
2022/12/09 03:05:38;;;;;;;14.23;10.40;;;;;;;-145.23;100.00;58621.06;4999209;28;20261;-53
2022/12/09 03:08:14;;;;;;;12.20;10.43;;;;;;;-145.23;100.00;58621.06;5009105;28;20232;-53
2022/12/09 03:10:52;;;;;;;13.20;10.70;;;;;;;-145.23;100.00;58621.06;5008246;28;20240;-52
2022/12/09 03:13:25;;;;;;;12.13;9.57;;;;;;;-145.23;100.00;58621.06;5000928;28;20262;-55
2022/12/09 03:15:55;;;;;;;12.23;10.37;;;;;;;-145.23;100.00;58621.06;5003639;28;20245;-53
2022/12/09 03:18:25;;;;;;;14.07;10.10;;;;;;;-145.23;100.00;58621.06;5001693;28;20316;-53
2022/12/09 03:20:51;;;;;;;11.87;9.73;;;;;;;-145.23;100.00;58621.06;5009846;28;20239;-54
2022/12/09 03:23:20;;;;;;;15.57;11.80;;;;;;;-145.23;100.00;58621.06;5024363;28;20235;-54
2022/12/09 03:25:51;;;;;;;15.33;11.37;;;;;;;-145.23;100.00;58621.06;5019537;28;20449;-55
2022/12/09 03:28:21;;;;;;;16.13;13.07;;;;;;;-145.23;100.00;58621.06;5004917;28;20227;-53
2022/12/09 03:30:49;;;;;;;15.23;12.87;;;;;;;-145.23;100.00;58621.06;5025691;28;20235;-53
2022/12/09 03:33:16;;;;;;;18.10;12.73;;;;;;;-145.23;100.00;58621.06;5005771;28;20236;-53
2022/12/09 03:35:46;;;;;;;13.50;10.60;;;;;;;-145.23;100.00;58621.06;5006853;28;20955;-53
2022/12/09 03:38:17;;;;;;;14.40;11.27;;;;;;;-145.23;100.00;58621.06;4999824;28;20331;-54
2022/12/09 03:40:47;;;;;;;15.53;10.87;;;;;;;-145.23;100.00;58621.06;5008544;28;20228;-52
2022/12/09 03:43:18;;;;;;;14.43;11.37;;;;;;;-145.23;100.00;58621.06;5027208;28;20589;-53
2022/12/09 03:45:45;;;;;;;15.77;11.80;;;;;;;-145.23;100.00;58621.06;5024101;28;20240;-54
2022/12/09 03:48:12;;;;;;;10.63;9.50;;;;;;;-145.23;100.00;58621.06;5025366;28;20989;-53
2022/12/09 03:50:44;;;;;;;11.60;9.17;;;;;;;-145.23;100.00;58621.06;5018795;28;20243;-53
2022/12/09 03:53:13;;;;;;;14.57;10.87;;;;;;;-145.23;100.00;58621.06;5011359;28;20314;-53
2022/12/09 03:55:51;;;;;;;12.33;10.03;;;;;;;-145.23;100.00;58621.06;5007467;28;20243;-53
2022/12/09 03:58:18;;;;;;;15.53;10.33;;;;;;;-145.23;100.00;58621.06;5001956;28;20639;-53
2022/12/09 04:00:45;;;;;;;15.53;11.53;;;;;;;-145.23;100.00;58621.06;5020125;28;20305;-53
2022/12/09 04:03:13;;;;;;;13.73;10.50;;;;;;;-145.23;100.00;58621.06;5009122;28;20358;-53
2022/12/09 04:05:41;;;;;;;14.47;11.00;;;;;;;-145.23;100.00;58621.06;4996117;28;20944;-54
2022/12/09 04:08:09;;;;;;;17.13;12.50;;;;;;;-145.23;100.00;58621.06;5002557;28;20248;-53
2022/12/09 04:10:36;;;;;;;15.30;11.37;;;;;;;-145.23;100.00;58621.06;5003902;28;20236;-53
2022/12/09 04:13:04;;;;;;;14.67;10.77;;;;;;;-145.23;100.00;58621.06;4995383;28;21127;-54
2022/12/09 04:15:31;;;;;;;14.13;11.27;;;;;;;-145.23;100.00;58621.06;5004747;28;20772;-52
2022/12/09 04:17:58;;;;;;;11.67;9.37;;;;;;;-145.23;100.00;58621.06;5003440;28;20266;-53
2022/12/09 04:20:25;;;;;;;16.50;10.93;;;;;;;-145.23;100.00;58621.06;5001618;28;20258;-54
2022/12/09 04:22:52;;;;;;;14.37;10.50;;;;;;;-145.23;100.00;58621.06;5003439;28;20249;-53
2022/12/09 04:25:19;;;;;;;12.73;9.90;;;;;;;-145.23;100.00;58621.06;5004302;28;20233;-57
2022/12/09 04:27:46;;;;;;;16.00;11.90;;;;;;;-145.23;100.00;58621.06;5006239;28;20737;-53
2022/12/09 04:30:15;;;;;;;13.90;9.67;;;;;;;-145.23;100.00;58621.06;5003424;28;20336;-54
2022/12/09 04:32:42;;;;;;;16.27;10.87;;;;;;;-145.23;100.00;58621.06;5002564;28;20643;-53
2022/12/09 04:35:10;;;;;;;16.23;10.87;;;;;;;-145.23;100.00;58621.06;4998465;28;20323;-53
2022/12/09 04:37:38;;;;;;;17.10;11.50;;;;;;;-145.23;100.00;58621.06;5000344;28;20247;-52
2022/12/09 04:40:06;;;;;;;14.00;11.53;;;;;;;-145.23;100.00;58621.06;4990045;28;20265;-53
2022/12/09 04:42:33;;;;;;;12.50;11.20;;;;;;;-145.23;100.00;58621.06;4995290;28;20614;-53
2022/12/09 04:45:01;;;;;;;13.77;11.27;;;;;;;-145.23;100.00;58621.06;4996791;28;20744;-53
2022/12/09 04:47:29;;;;;;;13.30;10.63;;;;;;;-145.23;100.00;58621.06;5003831;28;20232;-53
2022/12/09 04:49:57;;;;;;;13.63;10.60;;;;;;;-145.23;100.00;58621.06;4997402;28;20610;-52
2022/12/09 04:52:24;;;;;;;17.10;9.77;;;;;;;-145.23;100.00;58621.06;5001899;28;20252;-53
2022/12/09 04:54:51;;;;;;;15.03;9.97;;;;;;;-145.23;100.00;58621.06;5002258;28;20282;-54
2022/12/09 04:57:18;;;;;;;15.10;11.43;;;;;;;-145.23;100.00;58621.06;4998314;28;20263;-53
2022/12/09 04:59:45;;;;;;;15.47;11.63;;;;;;;-145.23;100.00;58621.06;5011124;28;20248;-53
2022/12/09 05:02:12;;;;;;;15.37;11.93;;;;;;;-145.23;100.00;58621.06;5015838;28;20236;-53
2022/12/09 05:04:41;;;;;;;13.50;10.90;;;;;;;-145.23;100.00;58621.06;4998024;28;20237;-53
2022/12/09 05:07:08;;;;;;;16.73;12.20;;;;;;;-145.23;100.00;58621.06;5002744;28;20235;-53
2022/12/09 05:09:35;;;;;;;15.20;11.43;;;;;;;-145.23;100.00;58621.06;5004684;28;20609;-53
2022/12/09 05:12:02;;;;;;;16.57;11.47;;;;;;;-145.23;100.00;58621.06;4998306;28;20320;-53
2022/12/09 05:14:29;;;;;;;15.07;11.93;;;;;;;-145.23;100.00;58621.06;5003256;28;20788;-53
2022/12/09 05:16:56;;;;;;;17.30;11.30;;;;;;;-145.23;100.00;58621.06;5002011;28;20237;-53
2022/12/09 05:19:23;;;;;;;12.43;10.17;;;;;;;-145.23;100.00;58621.06;5000583;28;20260;-53
2022/12/09 05:21:51;;;;;;;15.20;11.67;;;;;;;-145.23;100.00;58621.06;5005562;28;20725;-52
2022/12/09 05:24:18;;;;;;;14.90;12.33;;;;;;;-145.23;100.00;58621.06;5008615;28;20289;-53
2022/12/09 05:26:44;;;;;;;18.07;12.40;;;;;;;-145.23;100.00;58621.06;4999215;28;20982;-52
2022/12/09 05:29:11;;;;;;;15.27;12.30;;;;;;;-145.23;100.00;58621.06;5021556;28;20232;-53
2022/12/09 05:31:38;;;;;;;18.17;12.23;;;;;;;-145.23;100.00;58621.06;5020022;28;20754;-53
2022/12/09 05:34:07;;;;;;;17.73;12.63;;;;;;;-145.23;100.00;58621.06;5019661;28;20876;-53
2022/12/09 05:36:34;;;;;;;15.47;11.53;;;;;;;-145.23;100.00;58621.06;5018788;28;20231;-53
2022/12/09 05:39:03;;;;;;;14.33;11.43;;;;;;;-145.23;100.00;58621.06;5016913;28;20232;-53
2022/12/09 05:41:30;;;;;;;15.73;11.93;;;;;;;-145.23;100.00;58621.06;5017870;28;20261;-53
2022/12/09 05:43:57;;;;;;;16.40;12.50;;;;;;;-145.23;100.00;58621.06;5021766;28;20233;-53
2022/12/09 05:46:24;;;;;;;17.77;12.03;;;;;;;-145.23;100.00;58621.06;5014269;28;20766;-53
2022/12/09 05:48:51;;;;;;;17.37;11.30;;;;;;;-145.23;100.00;58621.06;5015126;28;20236;-54
2022/12/09 05:51:22;;;;;;;15.27;10.90;;;;;;;-145.23;100.00;58621.06;5017248;28;20236;-53
2022/12/09 05:53:49;;;;;;;17.83;12.03;;;;;;;-145.23;100.00;58621.06;5004737;28;20225;-53
2022/12/09 05:56:18;;;;;;;18.20;12.63;;;;;;;-145.23;100.00;58621.06;5015669;28;20238;-53
2022/12/09 05:58:45;;;;;;;18.97;12.30;;;;;;;-145.23;100.00;58621.06;5006160;28;20319;-54
2022/12/09 06:01:13;;;;;;;17.57;13.20;;;;;;;-145.23;100.00;58621.06;5016634;28;20239;-53
2022/12/09 06:03:40;;;;;;;17.60;13.60;;;;;;;-145.23;100.00;58621.06;4999228;28;20248;-53
2022/12/09 06:06:08;;;;;;;15.60;13.27;;;;;;;-145.23;100.00;58621.06;5000650;28;20718;-53
2022/12/09 06:08:35;;;;;;;19.83;13.70;;;;;;;-145.23;100.00;58621.06;4998943;28;20232;-53
2022/12/09 06:11:02;;;;;;;18.00;12.30;;;;;;;-145.23;100.00;58621.06;4995239;28;20355;-54
2022/12/09 06:13:30;;;;;;;16.77;12.77;;;;;;;-145.23;100.00;58621.06;5000480;28;20260;-53
2022/12/09 06:16:02;;;;;;;20.57;13.27;;;;;;;-145.23;100.00;58621.06;5000594;28;20256;-54
2022/12/09 06:18:29;;;;;;;17.37;13.20;;;;;;;-145.23;100.00;58621.06;5000359;28;20615;-53
2022/12/09 06:20:56;;;;;;;17.87;13.20;;;;;;;-145.23;100.00;58621.06;5002347;28;20239;-54
2022/12/09 06:23:23;;;;;;;17.57;12.10;;;;;;;-145.23;100.00;58621.06;4999293;28;20299;-53
2022/12/09 06:25:50;;;;;;;18.47;13.57;;;;;;;-145.23;100.00;58621.06;5008407;28;20239;-53
2022/12/09 06:28:18;;;;;;;24.33;15.23;;;;;;;-145.23;100.00;58621.06;5012731;28;20255;-54
2022/12/09 06:30:46;;;;;;;22.50;13.87;;;;;;;-145.23;100.00;58621.06;5005518;28;20252;-53
2022/12/09 06:33:13;;;;;;;19.13;14.30;;;;;;;-145.23;100.00;58621.06;5006424;28;20935;-53
2022/12/09 06:35:39;;;;;;;24.70;16.10;;;;;;;-145.23;100.00;58621.06;4994153;28;20271;-52
2022/12/09 06:38:06;;;;;;;24.80;16.10;;;;;;;-145.23;100.00;58621.06;4982951;28;20609;-52
2022/12/09 06:40:33;;;;;;;20.97;13.77;;;;;;;-145.23;100.00;58621.06;4993570;28;20321;-54
2022/12/09 06:43:00;;;;;;;25.03;15.97;;;;;;;-145.23;100.00;58621.06;4994857;28;20753;-54
2022/12/09 06:45:28;;;;;;;21.47;13.73;;;;;;;-145.23;100.00;58621.06;4996974;28;20796;-53
2022/12/09 06:47:56;;;;;;;29.90;16.93;;;;;;;-145.23;100.00;58621.06;4999756;28;20738;-53
2022/12/09 06:50:23;;;;;;;34.00;16.53;;;;;;;-145.23;100.00;58621.06;5003757;28;20244;-53
2022/12/09 06:52:51;;;;;;;30.30;16.83;;;;;;;-145.23;100.00;58621.06;5001956;28;20884;-53
2022/12/09 06:55:17;;;;;;;25.27;15.47;;;;;;;-145.23;100.00;58621.06;5025388;28;20236;-54
2022/12/09 06:57:44;;;;;;;29.03;17.43;;;;;;;-145.23;100.00;58621.06;5023704;28;20251;-54
2022/12/09 07:00:12;;;;;;;26.70;15.90;;;;;;;-145.23;100.00;58621.06;5022103;28;20220;-53
2022/12/09 07:02:39;;;;;;;27.77;14.53;;;;;;;-145.23;100.00;58621.06;5018126;28;20737;-53
2022/12/09 07:05:08;;;;;;;23.70;14.90;;;;;;;-145.23;100.00;58621.06;5017330;28;20233;-53
2022/12/09 07:07:35;;;;;;;26.33;15.30;;;;;;;-145.23;100.00;58621.06;5024822;28;20236;-53
2022/12/09 07:10:02;;;;;;;24.73;15.87;;;;;;;-145.23;100.00;58621.06;5021953;28;20865;-53
2022/12/09 07:12:29;;;;;;;28.87;15.80;;;;;;;-145.23;100.00;58621.06;5018679;28;20808;-52
2022/12/09 07:14:56;;;;;;;26.20;15.57;;;;;;;-145.23;100.00;58621.06;5009855;28;20236;-53
2022/12/09 07:17:23;;;;;;;27.30;16.20;;;;;;;-145.23;100.00;58621.06;5008553;28;20229;-53
2022/12/09 07:19:50;;;;;;;22.30;15.37;;;;;;;-145.23;100.00;58621.06;5016599;28;20243;-53
2022/12/09 07:22:18;;;;;;;25.93;16.63;;;;;;;-145.23;100.00;58621.06;5007110;28;20243;-53
2022/12/09 07:24:45;;;;;;;27.30;17.17;;;;;;;-145.23;100.00;58621.06;5002164;28;20275;-53
2022/12/09 07:27:15;;;;;;;27.20;13.80;;;;;;;-145.23;100.00;58621.06;4999960;28;20247;-53
2022/12/09 07:29:41;;;;;;;31.73;17.57;;;;;;;-145.23;100.00;58621.06;5001604;28;20268;-54
2022/12/09 07:32:09;;;;;;;24.97;15.73;;;;;;;-145.23;100.00;58621.06;5004178;28;20257;-53
2022/12/09 07:34:36;;;;;;;26.67;16.10;;;;;;;-145.23;100.00;58621.06;4996368;28;20318;-53
2022/12/09 07:37:03;;;;;;;27.70;15.63;;;;;;;-145.23;100.00;58621.06;5003118;28;20798;-52
2022/12/09 07:39:31;;;;;;;25.70;15.97;;;;;;;-145.23;100.00;58621.06;5004543;28;20242;-53
2022/12/09 07:41:58;;;;;;;25.90;15.60;;;;;;;-145.23;100.00;58621.06;5014329;28;20833;-53
2022/12/09 07:44:26;;;;;;;32.93;18.27;;;;;;;-145.23;100.00;58621.06;4994044;28;20244;-54
2022/12/09 07:46:53;;;;;;;27.43;16.40;;;;;;;-145.23;100.00;58621.06;5005009;28;20236;-53
2022/12/09 07:49:20;;;;;;;23.43;15.40;;;;;;;-145.23;100.00;58621.06;4992450;28;20256;-52
2022/12/09 07:51:47;;;;;;;22.53;13.23;;;;;;;-145.23;100.00;58621.06;5001953;28;20439;-53
2022/12/09 07:54:18;;;;;;;18.23;13.20;;;;;;;-145.23;100.00;58621.06;4994519;28;20232;-54
2022/12/09 07:56:47;;;;;;;23.57;14.43;;;;;;;-145.23;100.00;58621.06;5003502;28;20240;-53
2022/12/09 07:59:15;;;;;;;24.60;15.57;;;;;;;-145.23;100.00;58621.06;5005495;28;20689;-54
2022/12/09 08:01:42;;;;;;;25.07;14.93;;;;;;;-145.23;100.00;58621.06;5005753;28;20682;-52
2022/12/09 08:04:09;;;;;;;23.07;14.03;;;;;;;-145.23;100.00;58621.06;5012930;28;20236;-53
2022/12/09 08:06:37;;;;;;;21.57;13.70;;;;;;;-145.23;100.00;58621.06;5003141;28;20232;-53
2022/12/09 08:09:06;;;;;;;22.60;15.20;;;;;;;-145.23;100.00;58621.06;5003938;28;20259;-53
2022/12/09 08:11:33;;;;;;;28.17;16.10;;;;;;;-145.23;100.00;58621.06;5005533;28;20232;-53
2022/12/09 08:14:03;;;;;;;22.20;14.97;;;;;;;-145.23;100.00;58621.06;5004307;28;20244;-52
2022/12/09 08:16:30;;;;;;;20.20;12.43;;;;;;;-145.23;100.00;58621.06;5002920;28;20808;-54
2022/12/09 08:18:57;;;;;;;18.83;12.80;;;;;;;-145.23;100.00;58621.06;5001958;28;20243;-53
2022/12/09 08:21:27;;;;;;;17.10;12.53;;;;;;;-145.23;100.00;58621.06;4996158;28;20248;-53
2022/12/09 08:23:55;;;;;;;19.90;13.87;;;;;;;-145.23;100.00;58621.06;5010255;28;20240;-54
2022/12/09 08:26:24;;;;;;;20.60;12.70;;;;;;;-145.23;100.00;58621.06;5002026;28;20250;-53
2022/12/09 08:28:51;;;;;;;21.23;13.30;;;;;;;-145.23;100.00;58621.06;5000279;28;20287;-53
2022/12/09 08:31:21;;;;;;;19.87;13.87;;;;;;;-145.23;100.00;58621.06;5026252;28;20254;-54
2022/12/09 08:33:48;;;;;;;17.57;12.97;;;;;;;-145.23;100.00;58621.06;5024288;28;20239;-52
2022/12/09 08:36:16;;;;;;;19.47;13.47;;;;;;;-145.23;100.00;58621.06;5012731;28;20260;-53
2022/12/09 08:38:43;;;;;;;21.20;14.13;;;;;;;-145.23;100.00;58621.06;5001293;28;21721;-54
2022/12/09 08:41:12;;;;;;;26.03;14.90;;;;;;;-145.23;100.00;58621.06;4997760;28;20257;-53
2022/12/09 08:43:40;;;;;;;20.57;14.63;;;;;;;-145.23;100.00;58621.06;5000353;28;20232;-53
2022/12/09 08:46:07;;;;;;;20.53;12.93;;;;;;;-145.23;100.00;58621.06;5009897;28;20353;-54
2022/12/09 08:48:36;;;;;;;23.33;14.77;;;;;;;-145.23;100.00;58621.06;5010215;28;20229;-53
2022/12/09 08:51:03;;;;;;;24.53;15.80;;;;;;;-145.23;100.00;58621.06;5024973;28;20234;-53
2022/12/09 08:53:30;;;;;;;24.53;14.80;;;;;;;-145.23;100.00;58621.06;5023557;28;20270;-53
2022/12/09 08:55:58;;;;;;;25.63;16.83;;;;;;;-145.23;100.00;58621.06;5019677;28;20246;-53
2022/12/09 08:58:25;;;;;;;25.47;15.53;;;;;;;-145.23;100.00;58621.06;5015157;28;20607;-54
2022/12/09 09:00:52;;;;;;;22.27;14.50;;;;;;;-145.23;100.00;58621.06;5002645;28;20237;-54
2022/12/09 09:03:19;;;;;;;27.73;15.17;;;;;;;-145.23;100.00;58621.06;5006955;28;20320;-53
2022/12/09 09:05:47;;;;;;;19.87;14.00;;;;;;;-145.23;100.00;58621.06;4998570;28;20334;-53
2022/12/09 09:08:15;;;;;;;24.77;15.77;;;;;;;-145.23;100.00;58621.06;4998477;28;20294;-55
2022/12/09 09:10:42;;;;;;;26.73;16.53;;;;;;;-145.23;100.00;58621.06;5000409;28;20310;-55
2022/12/09 09:13:09;;;;;;;25.83;16.97;;;;;;;-145.23;100.00;58621.06;5011810;28;20236;-52
2022/12/09 09:15:39;;;;;;;25.53;15.47;;;;;;;-145.23;100.00;58621.06;5006928;28;20237;-58
2022/12/09 09:18:06;;;;;;;26.73;16.50;;;;;;;-145.23;100.00;58621.06;5015881;28;20250;-58
2022/12/09 09:20:33;;;;;;;25.37;15.53;;;;;;;-145.23;100.00;58621.06;5011372;28;20233;-52
2022/12/09 09:23:01;;;;;;;27.83;17.20;;;;;;;-145.23;100.00;58621.06;5000547;28;20782;-53
2022/12/09 09:25:28;;;;;;;24.47;16.50;;;;;;;-145.23;100.00;58621.06;5005353;28;20238;-54
2022/12/09 09:27:55;;;;;;;23.90;17.03;;;;;;;-145.23;100.00;58621.06;5004894;28;20243;-54
2022/12/09 09:30:22;;;;;;;23.77;15.43;;;;;;;-145.23;100.00;58621.06;5009456;28;20227;-53
2022/12/09 09:32:49;;;;;;;24.03;16.03;;;;;;;-145.23;100.00;58621.06;5004610;28;20236;-53
2022/12/09 09:35:16;;;;;;;26.00;15.87;;;;;;;-145.23;100.00;58621.06;4997210;28;20237;-53
2022/12/09 09:37:43;;;;;;;22.53;14.80;;;;;;;-145.23;100.00;58621.06;4994540;28;20233;-53
2022/12/09 09:40:12;;;;;;;23.93;16.07;;;;;;;-145.23;100.00;58621.06;5006383;28;20241;-56
2022/12/09 09:42:45;;;;;;;24.37;17.03;;;;;;;-145.23;100.00;58621.06;5002953;28;20489;-54
2022/12/09 09:45:17;;;;;;;24.07;16.30;;;;;;;-145.23;100.00;58621.06;5002650;28;20744;-53
2022/12/09 09:47:47;;;;;;;19.57;13.57;;;;;;;-145.23;100.00;58621.06;5004442;28;20247;-53
2022/12/09 09:50:25;;;;;;;17.90;12.90;;;;;;;-145.23;100.00;58621.06;5002578;28;22236;-53
2022/12/09 09:52:54;;;;;;;25.77;14.80;;;;;;;-145.23;100.00;58621.06;5010343;28;20235;-52
2022/12/09 09:55:30;;;;;;;17.80;13.00;;;;;;;-145.23;100.00;58621.06;5014892;28;20243;-53
2022/12/09 09:58:01;;;;;;;19.27;13.77;;;;;;;-145.23;100.00;58621.06;5034797;28;20231;-54
2022/12/09 10:00:32;;;;;;;23.07;14.97;;;;;;;-145.23;100.00;58621.06;5023235;28;20333;-53
2022/12/09 10:03:00;;;;;;;19.47;12.87;;;;;;;-145.23;100.00;58621.06;5022494;28;20245;-52
2022/12/09 10:05:30;;;;;;;17.87;12.57;;;;;;;-145.23;100.00;58621.06;5018817;28;20326;-53
2022/12/09 10:08:01;;;;;;;18.73;13.30;;;;;;;-145.23;100.00;58621.06;4998585;28;20343;-52
2022/12/09 10:10:39;;;;;;;20.17;13.93;;;;;;;-145.23;100.00;58621.06;4999385;28;20245;-52
2022/12/09 10:13:15;;;;;;;19.93;12.77;;;;;;;-145.23;100.00;58621.06;5003217;28;20243;-53
2022/12/09 10:15:47;;;;;;;22.03;13.67;;;;;;;-145.23;100.00;58621.06;5013155;28;20227;-53
2022/12/09 10:18:18;;;;;;;20.53;13.90;;;;;;;-145.23;100.00;58621.06;4999094;28;20253;-53
2022/12/09 10:20:44;;;;;;;19.10;13.13;;;;;;;-145.23;100.00;58621.06;4998645;28;20245;-54
2022/12/09 10:23:13;;;;;;;18.97;13.33;;;;;;;-145.23;100.00;58621.06;5011324;28;20319;-53
2022/12/09 10:25:45;;;;;;;18.70;12.93;;;;;;;-145.23;100.00;58621.06;5003593;28;20562;-53
2022/12/09 10:28:18;;;;;;;23.37;14.67;;;;;;;-145.23;100.00;58621.06;5001895;28;20347;-53
2022/12/09 10:30:44;;;;;;;22.03;15.03;;;;;;;-145.23;100.00;58621.06;4999653;28;20238;-53
2022/12/09 10:33:12;;;;;;;19.67;15.03;;;;;;;-145.23;100.00;58621.06;5003480;28;20319;-52
2022/12/09 10:35:38;;;;;;;21.93;13.97;;;;;;;-145.23;100.00;58621.06;5003015;28;20232;-54
2022/12/09 10:38:07;;;;;;;22.70;14.33;;;;;;;-145.23;100.00;58621.06;4999833;28;20655;-53
2022/12/09 10:40:48;;;;;;;21.27;15.97;;;;;;;-145.23;100.00;58621.06;4997199;28;20240;-53
2022/12/09 10:43:37;;;;;;;27.77;16.03;;;;;;;-145.23;100.00;58621.06;5004797;28;20244;-53
2022/12/09 10:46:07;;;;;;;23.60;15.07;;;;;;;-145.23;100.00;58621.06;5026396;28;20223;-52
2022/12/09 10:48:36;;;;;;;20.53;14.00;;;;;;;-145.23;100.00;58621.06;5022336;28;20320;-53
2022/12/09 10:51:06;;;;;;;22.77;14.90;;;;;;;-145.23;100.00;58621.06;5016513;28;20234;-52
2022/12/09 10:53:33;;;;;;;20.70;14.00;;;;;;;-145.23;100.00;58621.06;5002318;28;20726;-53
2022/12/09 10:56:01;;;;;;;22.30;14.87;;;;;;;-145.23;100.00;58621.06;4998472;28;20236;-53
2022/12/09 10:58:30;;;;;;;23.17;14.70;;;;;;;-145.23;100.00;58621.06;4999020;28;20750;-52
2022/12/09 11:01:08;;;;;;;23.27;14.07;;;;;;;-145.23;100.00;58621.06;5005279;28;20713;-53